sensor_id;sensor_type;location;lat;lon;timestamp;P1;durP1;ratioP1;P2;durP2;ratioP2
4011;SDS011;2020;48.682;9.024;2022-08-21T00:00:43;2.90;;;2.30;;
4011;SDS011;2020;48.682;9.024;2022-08-21T00:03:10;2.10;;;2.10;;
4011;SDS011;2020;48.682;9.024;2022-08-21T00:05:37;3.37;;;2.20;;
4011;SDS011;2020;48.682;9.024;2022-08-21T00:08:06;5.00;;;2.83;;
4011;SDS011;2020;48.682;9.024;2022-08-21T00:10:31;3.23;;;2.93;;
4011;SDS011;2020;48.682;9.024;2022-08-21T00:12:57;2.77;;;2.30;;
4011;SDS011;2020;48.682;9.024;2022-08-21T00:15:26;2.60;;;2.47;;
4011;SDS011;2020;48.682;9.024;2022-08-21T00:17:54;2.90;;;2.80;;
4011;SDS011;2020;48.682;9.024;2022-08-21T00:20:20;2.07;;;2.07;;
4011;SDS011;2020;48.682;9.024;2022-08-21T00:22:47;2.73;;;2.60;;
4011;SDS011;2020;48.682;9.024;2022-08-21T00:25:13;2.40;;;2.30;;
4011;SDS011;2020;48.682;9.024;2022-08-21T00:27:39;2.50;;;2.40;;
4011;SDS011;2020;48.682;9.024;2022-08-21T00:30:07;3.00;;;2.80;;
4011;SDS011;2020;48.682;9.024;2022-08-21T00:32:36;5.63;;;2.63;;
4011;SDS011;2020;48.682;9.024;2022-08-21T00:35:04;2.50;;;2.33;;
4011;SDS011;2020;48.682;9.024;2022-08-21T00:37:30;2.80;;;2.70;;
4011;SDS011;2020;48.682;9.024;2022-08-21T00:39:55;3.17;;;2.97;;
4011;SDS011;2020;48.682;9.024;2022-08-21T00:42:21;2.40;;;2.30;;
4011;SDS011;2020;48.682;9.024;2022-08-21T00:44:47;2.50;;;2.40;;
4011;SDS011;2020;48.682;9.024;2022-08-21T00:47:14;2.30;;;2.20;;
4011;SDS011;2020;48.682;9.024;2022-08-21T00:49:40;2.40;;;2.30;;
4011;SDS011;2020;48.682;9.024;2022-08-21T00:52:07;2.60;;;2.50;;
4011;SDS011;2020;48.682;9.024;2022-08-21T00:54:35;3.40;;;3.20;;
4011;SDS011;2020;48.682;9.024;2022-08-21T00:57:03;2.67;;;2.57;;
4011;SDS011;2020;48.682;9.024;2022-08-21T00:59:34;2.40;;;2.30;;
4011;SDS011;2020;48.682;9.024;2022-08-21T01:02:04;2.40;;;2.30;;
4011;SDS011;2020;48.682;9.024;2022-08-21T01:04:32;4.73;;;2.83;;
4011;SDS011;2020;48.682;9.024;2022-08-21T01:06:57;2.97;;;2.77;;
4011;SDS011;2020;48.682;9.024;2022-08-21T01:09:22;2.43;;;2.33;;
4011;SDS011;2020;48.682;9.024;2022-08-21T01:11:48;2.63;;;2.53;;
4011;SDS011;2020;48.682;9.024;2022-08-21T01:14:14;2.33;;;2.23;;
4011;SDS011;2020;48.682;9.024;2022-08-21T01:16:40;2.80;;;2.60;;
4011;SDS011;2020;48.682;9.024;2022-08-21T01:19:09;4.97;;;2.53;;
4011;SDS011;2020;48.682;9.024;2022-08-21T01:21:34;2.90;;;2.80;;
4011;SDS011;2020;48.682;9.024;2022-08-21T01:23:59;3.00;;;2.80;;
4011;SDS011;2020;48.682;9.024;2022-08-21T01:26:30;3.57;;;2.93;;
4011;SDS011;2020;48.682;9.024;2022-08-21T01:28:59;3.57;;;3.27;;
4011;SDS011;2020;48.682;9.024;2022-08-21T01:31:28;2.30;;;2.20;;
4011;SDS011;2020;48.682;9.024;2022-08-21T01:33:55;2.40;;;2.30;;
4011;SDS011;2020;48.682;9.024;2022-08-21T01:36:21;2.57;;;2.37;;
4011;SDS011;2020;48.682;9.024;2022-08-21T01:38:48;2.70;;;2.60;;
4011;SDS011;2020;48.682;9.024;2022-08-21T01:41:14;2.63;;;2.53;;
4011;SDS011;2020;48.682;9.024;2022-08-21T01:43:40;2.87;;;2.77;;
4011;SDS011;2020;48.682;9.024;2022-08-21T01:46:07;3.20;;;3.10;;
4011;SDS011;2020;48.682;9.024;2022-08-21T01:48:32;2.80;;;2.70;;
4011;SDS011;2020;48.682;9.024;2022-08-21T01:50:58;3.20;;;3.00;;
4011;SDS011;2020;48.682;9.024;2022-08-21T01:53:23;2.30;;;2.20;;
4011;SDS011;2020;48.682;9.024;2022-08-21T01:55:49;2.87;;;2.77;;
4011;SDS011;2020;48.682;9.024;2022-08-21T01:58:14;3.67;;;3.47;;
4011;SDS011;2020;48.682;9.024;2022-08-21T02:00:39;2.40;;;2.30;;
4011;SDS011;2020;48.682;9.024;2022-08-21T02:03:05;2.50;;;2.50;;
4011;SDS011;2020;48.682;9.024;2022-08-21T02:05:30;13.23;;;3.50;;
4011;SDS011;2020;48.682;9.024;2022-08-21T02:07:55;2.53;;;2.43;;
4011;SDS011;2020;48.682;9.024;2022-08-21T02:10:22;3.07;;;2.87;;
4011;SDS011;2020;48.682;9.024;2022-08-21T02:12:51;2.80;;;2.70;;
4011;SDS011;2020;48.682;9.024;2022-08-21T02:15:17;2.70;;;2.47;;
4011;SDS011;2020;48.682;9.024;2022-08-21T02:17:45;4.10;;;2.30;;
4011;SDS011;2020;48.682;9.024;2022-08-21T02:20:15;3.00;;;2.80;;
4011;SDS011;2020;48.682;9.024;2022-08-21T02:22:44;3.60;;;2.90;;
4011;SDS011;2020;48.682;9.024;2022-08-21T02:25:09;2.80;;;2.60;;
4011;SDS011;2020;48.682;9.024;2022-08-21T02:27:39;2.73;;;2.43;;
4011;SDS011;2020;48.682;9.024;2022-08-21T02:30:07;2.83;;;2.63;;
4011;SDS011;2020;48.682;9.024;2022-08-21T02:32:34;2.60;;;2.50;;
4011;SDS011;2020;48.682;9.024;2022-08-21T02:34:59;2.63;;;2.53;;
4011;SDS011;2020;48.682;9.024;2022-08-21T02:37:24;3.17;;;2.77;;
4011;SDS011;2020;48.682;9.024;2022-08-21T02:39:50;2.67;;;2.47;;
4011;SDS011;2020;48.682;9.024;2022-08-21T02:42:15;3.23;;;3.13;;
4011;SDS011;2020;48.682;9.024;2022-08-21T02:44:41;2.70;;;2.50;;
4011;SDS011;2020;48.682;9.024;2022-08-21T02:47:06;3.30;;;3.20;;
4011;SDS011;2020;48.682;9.024;2022-08-21T02:49:32;2.97;;;2.73;;
4011;SDS011;2020;48.682;9.024;2022-08-21T02:51:57;3.20;;;3.00;;
4011;SDS011;2020;48.682;9.024;2022-08-21T02:54:22;2.50;;;2.47;;
4011;SDS011;2020;48.682;9.024;2022-08-21T02:56:48;3.00;;;2.90;;
4011;SDS011;2020;48.682;9.024;2022-08-21T02:59:13;2.80;;;2.70;;
4011;SDS011;2020;48.682;9.024;2022-08-21T03:01:38;2.43;;;2.33;;
4011;SDS011;2020;48.682;9.024;2022-08-21T03:04:04;2.63;;;2.53;;
4011;SDS011;2020;48.682;9.024;2022-08-21T03:06:29;2.07;;;2.07;;
4011;SDS011;2020;48.682;9.024;2022-08-21T03:08:54;2.70;;;2.50;;
4011;SDS011;2020;48.682;9.024;2022-08-21T03:11:20;2.10;;;2.00;;
4011;SDS011;2020;48.682;9.024;2022-08-21T03:13:45;2.50;;;2.40;;
4011;SDS011;2020;48.682;9.024;2022-08-21T03:16:11;2.50;;;2.40;;
4011;SDS011;2020;48.682;9.024;2022-08-21T03:18:37;2.40;;;2.20;;
4011;SDS011;2020;48.682;9.024;2022-08-21T03:21:02;3.27;;;2.97;;
4011;SDS011;2020;48.682;9.024;2022-08-21T03:23:27;3.10;;;3.00;;
4011;SDS011;2020;48.682;9.024;2022-08-21T03:25:55;2.70;;;2.60;;
4011;SDS011;2020;48.682;9.024;2022-08-21T03:28:20;2.67;;;2.57;;
4011;SDS011;2020;48.682;9.024;2022-08-21T03:30:47;3.93;;;2.77;;
4011;SDS011;2020;48.682;9.024;2022-08-21T03:33:14;2.87;;;2.67;;
4011;SDS011;2020;48.682;9.024;2022-08-21T03:35:40;3.93;;;2.47;;
4011;SDS011;2020;48.682;9.024;2022-08-21T03:38:07;2.23;;;2.13;;
4011;SDS011;2020;48.682;9.024;2022-08-21T03:40:32;2.93;;;2.73;;
4011;SDS011;2020;48.682;9.024;2022-08-21T03:42:58;2.63;;;2.43;;
4011;SDS011;2020;48.682;9.024;2022-08-21T03:45:23;2.90;;;2.80;;
4011;SDS011;2020;48.682;9.024;2022-08-21T03:47:59;3.00;;;2.77;;
4011;SDS011;2020;48.682;9.024;2022-08-21T03:50:28;2.70;;;2.60;;
4011;SDS011;2020;48.682;9.024;2022-08-21T03:52:55;3.07;;;2.77;;
4011;SDS011;2020;48.682;9.024;2022-08-21T03:55:21;3.03;;;2.97;;
4011;SDS011;2020;48.682;9.024;2022-08-21T03:57:46;2.57;;;2.47;;
4011;SDS011;2020;48.682;9.024;2022-08-21T04:00:12;4.17;;;3.10;;
4011;SDS011;2020;48.682;9.024;2022-08-21T04:02:39;3.40;;;3.20;;
4011;SDS011;2020;48.682;9.024;2022-08-21T04:05:06;2.67;;;2.50;;
4011;SDS011;2020;48.682;9.024;2022-08-21T04:07:32;2.20;;;2.10;;
4011;SDS011;2020;48.682;9.024;2022-08-21T04:09:57;3.70;;;2.47;;
4011;SDS011;2020;48.682;9.024;2022-08-21T04:12:23;2.40;;;2.20;;
4011;SDS011;2020;48.682;9.024;2022-08-21T04:14:48;2.80;;;2.70;;
4011;SDS011;2020;48.682;9.024;2022-08-21T04:17:16;2.80;;;2.70;;
4011;SDS011;2020;48.682;9.024;2022-08-21T04:19:42;2.90;;;2.80;;
4011;SDS011;2020;48.682;9.024;2022-08-21T04:22:07;3.03;;;2.93;;
4011;SDS011;2020;48.682;9.024;2022-08-21T04:24:32;2.10;;;2.10;;
4011;SDS011;2020;48.682;9.024;2022-08-21T04:26:58;2.63;;;2.53;;
4011;SDS011;2020;48.682;9.024;2022-08-21T04:29:23;2.50;;;2.40;;
4011;SDS011;2020;48.682;9.024;2022-08-21T04:31:48;2.83;;;2.73;;
4011;SDS011;2020;48.682;9.024;2022-08-21T04:34:13;2.90;;;2.80;;
4011;SDS011;2020;48.682;9.024;2022-08-21T04:36:39;2.70;;;2.60;;
4011;SDS011;2020;48.682;9.024;2022-08-21T04:39:04;3.30;;;3.10;;
4011;SDS011;2020;48.682;9.024;2022-08-21T04:41:29;2.83;;;2.73;;
4011;SDS011;2020;48.682;9.024;2022-08-21T04:43:55;2.87;;;2.70;;
4011;SDS011;2020;48.682;9.024;2022-08-21T04:46:20;2.90;;;2.80;;
4011;SDS011;2020;48.682;9.024;2022-08-21T04:48:46;2.77;;;2.60;;
4011;SDS011;2020;48.682;9.024;2022-08-21T04:51:13;4.47;;;4.00;;
4011;SDS011;2020;48.682;9.024;2022-08-21T04:54:00;3.57;;;2.97;;
4011;SDS011;2020;48.682;9.024;2022-08-21T04:56:35;3.07;;;2.97;;
4011;SDS011;2020;48.682;9.024;2022-08-21T04:59:04;3.27;;;3.17;;
4011;SDS011;2020;48.682;9.024;2022-08-21T05:01:36;2.57;;;2.47;;
4011;SDS011;2020;48.682;9.024;2022-08-21T05:04:03;2.63;;;2.53;;
4011;SDS011;2020;48.682;9.024;2022-08-21T05:06:30;2.50;;;2.37;;
4011;SDS011;2020;48.682;9.024;2022-08-21T05:09:00;3.40;;;3.30;;
4011;SDS011;2020;48.682;9.024;2022-08-21T05:11:26;2.97;;;2.87;;
4011;SDS011;2020;48.682;9.024;2022-08-21T05:13:51;3.23;;;3.00;;
4011;SDS011;2020;48.682;9.024;2022-08-21T05:16:17;3.07;;;2.87;;
4011;SDS011;2020;48.682;9.024;2022-08-21T05:18:42;4.50;;;3.07;;
4011;SDS011;2020;48.682;9.024;2022-08-21T05:21:08;3.77;;;3.57;;
4011;SDS011;2020;48.682;9.024;2022-08-21T05:23:34;2.90;;;2.80;;
4011;SDS011;2020;48.682;9.024;2022-08-21T05:26:00;3.30;;;3.20;;
4011;SDS011;2020;48.682;9.024;2022-08-21T05:28:26;3.37;;;3.27;;
4011;SDS011;2020;48.682;9.024;2022-08-21T05:30:52;2.97;;;2.87;;
4011;SDS011;2020;48.682;9.024;2022-08-21T05:33:17;3.00;;;2.93;;
4011;SDS011;2020;48.682;9.024;2022-08-21T05:35:42;3.50;;;3.40;;
4011;SDS011;2020;48.682;9.024;2022-08-21T05:38:08;3.07;;;2.97;;
4011;SDS011;2020;48.682;9.024;2022-08-21T05:40:34;3.40;;;3.27;;
4011;SDS011;2020;48.682;9.024;2022-08-21T05:43:00;4.30;;;2.77;;
4011;SDS011;2020;48.682;9.024;2022-08-21T05:45:27;3.70;;;3.50;;
4011;SDS011;2020;48.682;9.024;2022-08-21T05:48:07;3.60;;;3.30;;
4011;SDS011;2020;48.682;9.024;2022-08-21T05:50:34;3.57;;;3.27;;
4011;SDS011;2020;48.682;9.024;2022-08-21T05:52:59;3.47;;;3.17;;
4011;SDS011;2020;48.682;9.024;2022-08-21T05:55:25;5.87;;;5.30;;
4011;SDS011;2020;48.682;9.024;2022-08-21T05:57:50;4.33;;;3.93;;
4011;SDS011;2020;48.682;9.024;2022-08-21T06:00:15;3.70;;;3.40;;
4011;SDS011;2020;48.682;9.024;2022-08-21T06:02:41;3.07;;;2.97;;
4011;SDS011;2020;48.682;9.024;2022-08-21T06:05:07;3.73;;;3.63;;
4011;SDS011;2020;48.682;9.024;2022-08-21T06:07:32;3.40;;;3.30;;
4011;SDS011;2020;48.682;9.024;2022-08-21T06:09:58;4.00;;;3.80;;
4011;SDS011;2020;48.682;9.024;2022-08-21T06:12:23;4.47;;;4.10;;
4011;SDS011;2020;48.682;9.024;2022-08-21T06:14:50;4.93;;;4.53;;
4011;SDS011;2020;48.682;9.024;2022-08-21T06:17:17;4.17;;;3.87;;
4011;SDS011;2020;48.682;9.024;2022-08-21T06:19:43;6.50;;;4.10;;
4011;SDS011;2020;48.682;9.024;2022-08-21T06:22:08;3.47;;;3.17;;
4011;SDS011;2020;48.682;9.024;2022-08-21T06:24:34;5.00;;;3.90;;
4011;SDS011;2020;48.682;9.024;2022-08-21T06:27:03;5.83;;;3.90;;
4011;SDS011;2020;48.682;9.024;2022-08-21T06:29:32;4.30;;;4.00;;
4011;SDS011;2020;48.682;9.024;2022-08-21T06:31:59;10.80;;;4.03;;
4011;SDS011;2020;48.682;9.024;2022-08-21T06:34:24;4.10;;;3.73;;
4011;SDS011;2020;48.682;9.024;2022-08-21T06:36:49;3.53;;;3.23;;
4011;SDS011;2020;48.682;9.024;2022-08-21T06:39:14;8.93;;;3.87;;
4011;SDS011;2020;48.682;9.024;2022-08-21T06:41:40;6.23;;;3.30;;
4011;SDS011;2020;48.682;9.024;2022-08-21T06:44:05;4.47;;;4.17;;
4011;SDS011;2020;48.682;9.024;2022-08-21T06:46:31;4.60;;;3.60;;
4011;SDS011;2020;48.682;9.024;2022-08-21T06:48:56;4.10;;;3.70;;
4011;SDS011;2020;48.682;9.024;2022-08-21T06:51:23;3.63;;;3.40;;
4011;SDS011;2020;48.682;9.024;2022-08-21T06:53:50;3.00;;;2.90;;
4011;SDS011;2020;48.682;9.024;2022-08-21T06:56:15;4.83;;;4.40;;
4011;SDS011;2020;48.682;9.024;2022-08-21T06:58:41;4.50;;;3.70;;
4011;SDS011;2020;48.682;9.024;2022-08-21T07:01:06;3.70;;;3.47;;
4011;SDS011;2020;48.682;9.024;2022-08-21T07:03:33;3.93;;;3.73;;
4011;SDS011;2020;48.682;9.024;2022-08-21T07:06:00;4.03;;;3.73;;
4011;SDS011;2020;48.682;9.024;2022-08-21T07:08:26;3.67;;;3.40;;
4011;SDS011;2020;48.682;9.024;2022-08-21T07:10:53;4.50;;;3.60;;
4011;SDS011;2020;48.682;9.024;2022-08-21T07:13:20;7.37;;;3.87;;
4011;SDS011;2020;48.682;9.024;2022-08-21T07:15:45;7.63;;;3.30;;
4011;SDS011;2020;48.682;9.024;2022-08-21T07:18:10;4.53;;;4.20;;
4011;SDS011;2020;48.682;9.024;2022-08-21T07:20:36;3.87;;;3.53;;
4011;SDS011;2020;48.682;9.024;2022-08-21T07:23:04;3.70;;;3.50;;
4011;SDS011;2020;48.682;9.024;2022-08-21T07:25:32;5.17;;;4.67;;
4011;SDS011;2020;48.682;9.024;2022-08-21T07:27:57;4.17;;;3.97;;
4011;SDS011;2020;48.682;9.024;2022-08-21T07:30:23;8.10;;;3.73;;
4011;SDS011;2020;48.682;9.024;2022-08-21T07:32:49;4.50;;;4.20;;
4011;SDS011;2020;48.682;9.024;2022-08-21T07:35:16;4.70;;;4.40;;
4011;SDS011;2020;48.682;9.024;2022-08-21T07:37:42;9.90;;;4.23;;
4011;SDS011;2020;48.682;9.024;2022-08-21T07:40:07;4.23;;;3.83;;
4011;SDS011;2020;48.682;9.024;2022-08-21T07:42:33;4.67;;;4.20;;
4011;SDS011;2020;48.682;9.024;2022-08-21T07:44:58;6.60;;;4.67;;
4011;SDS011;2020;48.682;9.024;2022-08-21T07:47:24;4.50;;;4.03;;
4011;SDS011;2020;48.682;9.024;2022-08-21T07:49:49;4.60;;;3.97;;
4011;SDS011;2020;48.682;9.024;2022-08-21T07:52:14;5.10;;;3.87;;
4011;SDS011;2020;48.682;9.024;2022-08-21T07:54:40;7.83;;;4.20;;
4011;SDS011;2020;48.682;9.024;2022-08-21T07:57:05;4.67;;;4.27;;
4011;SDS011;2020;48.682;9.024;2022-08-21T07:59:30;4.40;;;4.00;;
4011;SDS011;2020;48.682;9.024;2022-08-21T08:01:55;6.10;;;3.60;;
4011;SDS011;2020;48.682;9.024;2022-08-21T08:04:21;4.10;;;3.70;;
4011;SDS011;2020;48.682;9.024;2022-08-21T08:06:46;4.23;;;3.83;;
4011;SDS011;2020;48.682;9.024;2022-08-21T08:09:12;4.17;;;3.87;;
4011;SDS011;2020;48.682;9.024;2022-08-21T08:11:37;3.70;;;3.50;;
4011;SDS011;2020;48.682;9.024;2022-08-21T08:14:06;3.03;;;2.93;;
4011;SDS011;2020;48.682;9.024;2022-08-21T08:16:31;3.37;;;3.20;;
4011;SDS011;2020;48.682;9.024;2022-08-21T08:18:56;3.50;;;3.30;;
4011;SDS011;2020;48.682;9.024;2022-08-21T08:21:22;6.30;;;3.60;;
4011;SDS011;2020;48.682;9.024;2022-08-21T08:23:47;3.60;;;3.40;;
4011;SDS011;2020;48.682;9.024;2022-08-21T08:26:13;7.00;;;3.63;;
4011;SDS011;2020;48.682;9.024;2022-08-21T08:28:40;3.73;;;3.37;;
4011;SDS011;2020;48.682;9.024;2022-08-21T08:31:06;3.83;;;3.33;;
4011;SDS011;2020;48.682;9.024;2022-08-21T08:33:31;2.97;;;2.87;;
4011;SDS011;2020;48.682;9.024;2022-08-21T08:35:56;3.87;;;3.50;;
4011;SDS011;2020;48.682;9.024;2022-08-21T08:38:22;5.87;;;3.10;;
4011;SDS011;2020;48.682;9.024;2022-08-21T08:43:38;4.23;;;3.20;;
4011;SDS011;2020;48.682;9.024;2022-08-21T08:46:06;4.50;;;3.23;;
4011;SDS011;2020;48.682;9.024;2022-08-21T08:48:51;3.47;;;3.20;;
4011;SDS011;2020;48.682;9.024;2022-08-21T08:51:34;5.83;;;3.27;;
4011;SDS011;2020;48.682;9.024;2022-08-21T08:54:08;3.80;;;3.50;;
4011;SDS011;2020;48.682;9.024;2022-08-21T08:56:36;4.13;;;3.73;;
4011;SDS011;2020;48.682;9.024;2022-08-21T08:59:05;6.03;;;3.57;;
4011;SDS011;2020;48.682;9.024;2022-08-21T09:01:35;3.83;;;3.53;;
4011;SDS011;2020;48.682;9.024;2022-08-21T09:04:00;3.50;;;3.20;;
4011;SDS011;2020;48.682;9.024;2022-08-21T09:06:34;5.20;;;3.10;;
4011;SDS011;2020;48.682;9.024;2022-08-21T09:14:22;2.53;;;2.40;;
4011;SDS011;2020;48.682;9.024;2022-08-21T09:17:12;4.17;;;3.27;;
4011;SDS011;2020;48.682;9.024;2022-08-21T09:22:57;3.13;;;2.93;;
4011;SDS011;2020;48.682;9.024;2022-08-21T09:25:34;3.67;;;3.37;;
4011;SDS011;2020;48.682;9.024;2022-08-21T09:28:11;3.50;;;3.20;;
4011;SDS011;2020;48.682;9.024;2022-08-21T09:30:39;3.00;;;2.80;;
4011;SDS011;2020;48.682;9.024;2022-08-21T09:33:06;2.80;;;2.60;;
4011;SDS011;2020;48.682;9.024;2022-08-21T09:35:32;2.60;;;2.40;;
4011;SDS011;2020;48.682;9.024;2022-08-21T09:38:04;2.70;;;2.50;;
4011;SDS011;2020;48.682;9.024;2022-08-21T09:43:02;3.03;;;2.87;;
4011;SDS011;2020;48.682;9.024;2022-08-21T09:45:47;3.40;;;3.10;;
4011;SDS011;2020;48.682;9.024;2022-08-21T09:48:17;2.63;;;2.53;;
4011;SDS011;2020;48.682;9.024;2022-08-21T09:50:44;2.87;;;2.57;;
4011;SDS011;2020;48.682;9.024;2022-08-21T09:53:17;3.07;;;2.87;;
4011;SDS011;2020;48.682;9.024;2022-08-21T09:55:48;3.00;;;2.80;;
4011;SDS011;2020;48.682;9.024;2022-08-21T09:58:36;3.03;;;2.87;;
4011;SDS011;2020;48.682;9.024;2022-08-21T10:01:03;3.37;;;3.10;;
4011;SDS011;2020;48.682;9.024;2022-08-21T10:03:30;6.73;;;3.07;;
4011;SDS011;2020;48.682;9.024;2022-08-21T10:08:21;2.80;;;2.60;;
4011;SDS011;2020;48.682;9.024;2022-08-21T10:10:50;3.53;;;2.83;;
4011;SDS011;2020;48.682;9.024;2022-08-21T10:13:27;3.10;;;2.90;;
4011;SDS011;2020;48.682;9.024;2022-08-21T10:16:28;4.30;;;2.30;;
4011;SDS011;2020;48.682;9.024;2022-08-21T10:24:43;2.57;;;2.37;;
4011;SDS011;2020;48.682;9.024;2022-08-21T10:30:00;3.00;;;2.80;;
4011;SDS011;2020;48.682;9.024;2022-08-21T10:35:32;3.60;;;3.30;;
4011;SDS011;2020;48.682;9.024;2022-08-21T10:44:02;2.40;;;2.30;;
4011;SDS011;2020;48.682;9.024;2022-08-21T10:46:52;3.47;;;2.87;;
4011;SDS011;2020;48.682;9.024;2022-08-21T10:52:46;2.97;;;2.80;;
4011;SDS011;2020;48.682;9.024;2022-08-21T10:55:02;2.63;;;2.53;;
4011;SDS011;2020;48.682;9.024;2022-08-21T10:57:38;2.60;;;2.40;;
4011;SDS011;2020;48.682;9.024;2022-08-21T11:00:10;3.50;;;3.30;;
4011;SDS011;2020;48.682;9.024;2022-08-21T11:02:48;3.40;;;3.20;;
4011;SDS011;2020;48.682;9.024;2022-08-21T11:05:55;9.07;;;3.60;;
4011;SDS011;2020;48.682;9.024;2022-08-21T11:08:29;2.73;;;2.63;;
4011;SDS011;2020;48.682;9.024;2022-08-21T11:11:04;3.57;;;3.37;;
4011;SDS011;2020;48.682;9.024;2022-08-21T11:16:14;2.60;;;2.50;;
4011;SDS011;2020;48.682;9.024;2022-08-21T11:18:47;4.07;;;3.67;;
4011;SDS011;2020;48.682;9.024;2022-08-21T11:27:22;3.10;;;2.90;;
4011;SDS011;2020;48.682;9.024;2022-08-21T11:29:40;3.23;;;3.07;;
4011;SDS011;2020;48.682;9.024;2022-08-21T11:35:18;3.23;;;3.03;;
4011;SDS011;2020;48.682;9.024;2022-08-21T11:40:44;3.70;;;3.10;;
4011;SDS011;2020;48.682;9.024;2022-08-21T11:51:46;3.47;;;3.30;;
4011;SDS011;2020;48.682;9.024;2022-08-21T11:56:47;3.43;;;2.70;;
4011;SDS011;2020;48.682;9.024;2022-08-21T11:59:19;3.40;;;3.10;;
4011;SDS011;2020;48.682;9.024;2022-08-21T12:01:48;3.43;;;2.77;;
4011;SDS011;2020;48.682;9.024;2022-08-21T12:06:44;4.13;;;3.53;;
4011;SDS011;2020;48.682;9.024;2022-08-21T12:09:32;3.40;;;2.70;;
4011;SDS011;2020;48.682;9.024;2022-08-21T12:12:01;4.83;;;2.90;;
4011;SDS011;2020;48.682;9.024;2022-08-21T12:14:37;3.13;;;3.00;;
4011;SDS011;2020;48.682;9.024;2022-08-21T12:17:06;3.37;;;3.27;;
4011;SDS011;2020;48.682;9.024;2022-08-21T12:19:32;3.00;;;2.90;;
4011;SDS011;2020;48.682;9.024;2022-08-21T12:26:53;2.83;;;2.60;;
4011;SDS011;2020;48.682;9.024;2022-08-21T12:32:03;3.40;;;3.10;;
4011;SDS011;2020;48.682;9.024;2022-08-21T12:34:48;4.83;;;3.33;;
4011;SDS011;2020;48.682;9.024;2022-08-21T12:40:03;3.40;;;3.07;;
4011;SDS011;2020;48.682;9.024;2022-08-21T12:42:41;3.23;;;2.93;;
4011;SDS011;2020;48.682;9.024;2022-08-21T12:45:31;3.87;;;3.53;;
4011;SDS011;2020;48.682;9.024;2022-08-21T12:53:05;2.83;;;2.63;;
4011;SDS011;2020;48.682;9.024;2022-08-21T12:55:40;3.83;;;3.50;;
4011;SDS011;2020;48.682;9.024;2022-08-21T12:58:16;4.47;;;2.87;;
4011;SDS011;2020;48.682;9.024;2022-08-21T13:00:47;4.20;;;2.90;;
4011;SDS011;2020;48.682;9.024;2022-08-21T13:03:15;2.60;;;2.40;;
4011;SDS011;2020;48.682;9.024;2022-08-21T13:05:41;3.87;;;2.50;;
4011;SDS011;2020;48.682;9.024;2022-08-21T13:08:07;3.20;;;3.00;;
4011;SDS011;2020;48.682;9.024;2022-08-21T13:10:36;3.83;;;2.63;;
4011;SDS011;2020;48.682;9.024;2022-08-21T13:13:03;3.00;;;2.90;;
4011;SDS011;2020;48.682;9.024;2022-08-21T13:15:36;2.60;;;2.50;;
4011;SDS011;2020;48.682;9.024;2022-08-21T13:18:05;3.30;;;3.20;;
4011;SDS011;2020;48.682;9.024;2022-08-21T13:23:03;3.63;;;3.40;;
4011;SDS011;2020;48.682;9.024;2022-08-21T13:25:40;4.07;;;3.77;;
4011;SDS011;2020;48.682;9.024;2022-08-21T13:28:07;4.60;;;3.60;;
4011;SDS011;2020;48.682;9.024;2022-08-21T13:30:38;3.60;;;3.30;;
4011;SDS011;2020;48.682;9.024;2022-08-21T13:33:05;3.43;;;3.13;;
4011;SDS011;2020;48.682;9.024;2022-08-21T13:35:34;4.30;;;3.40;;
4011;SDS011;2020;48.682;9.024;2022-08-21T13:38:16;3.50;;;3.30;;
4011;SDS011;2020;48.682;9.024;2022-08-21T13:40:49;4.00;;;3.37;;
4011;SDS011;2020;48.682;9.024;2022-08-21T13:43:17;3.60;;;3.40;;
4011;SDS011;2020;48.682;9.024;2022-08-21T13:45:56;3.57;;;3.27;;
4011;SDS011;2020;48.682;9.024;2022-08-21T13:48:23;3.63;;;3.33;;
4011;SDS011;2020;48.682;9.024;2022-08-21T13:50:51;3.40;;;3.13;;
4011;SDS011;2020;48.682;9.024;2022-08-21T13:56:30;2.80;;;2.60;;
4011;SDS011;2020;48.682;9.024;2022-08-21T13:58:58;3.03;;;2.83;;
4011;SDS011;2020;48.682;9.024;2022-08-21T14:01:26;3.30;;;3.03;;
4011;SDS011;2020;48.682;9.024;2022-08-21T14:03:58;2.73;;;2.60;;
4011;SDS011;2020;48.682;9.024;2022-08-21T14:06:32;3.40;;;3.10;;
4011;SDS011;2020;48.682;9.024;2022-08-21T14:09:07;3.63;;;3.07;;
4011;SDS011;2020;48.682;9.024;2022-08-21T14:11:37;3.40;;;3.00;;
4011;SDS011;2020;48.682;9.024;2022-08-21T14:14:05;3.47;;;3.27;;
4011;SDS011;2020;48.682;9.024;2022-08-21T14:16:51;8.03;;;3.67;;
4011;SDS011;2020;48.682;9.024;2022-08-21T14:19:23;2.80;;;2.60;;
4011;SDS011;2020;48.682;9.024;2022-08-21T14:21:59;2.70;;;2.60;;
4011;SDS011;2020;48.682;9.024;2022-08-21T14:24:27;3.10;;;3.00;;
4011;SDS011;2020;48.682;9.024;2022-08-21T14:26:55;3.97;;;3.20;;
4011;SDS011;2020;48.682;9.024;2022-08-21T14:29:26;3.73;;;3.00;;
4011;SDS011;2020;48.682;9.024;2022-08-21T14:31:58;4.03;;;3.73;;
4011;SDS011;2020;48.682;9.024;2022-08-21T14:34:25;4.70;;;3.47;;
4011;SDS011;2020;48.682;9.024;2022-08-21T14:36:52;3.57;;;3.27;;
4011;SDS011;2020;48.682;9.024;2022-08-21T14:39:19;2.97;;;2.87;;
4011;SDS011;2020;48.682;9.024;2022-08-21T14:41:45;4.13;;;3.77;;
4011;SDS011;2020;48.682;9.024;2022-08-21T14:44:12;3.43;;;3.33;;
4011;SDS011;2020;48.682;9.024;2022-08-21T14:46:38;3.07;;;2.87;;
4011;SDS011;2020;48.682;9.024;2022-08-21T14:49:03;3.17;;;2.93;;
4011;SDS011;2020;48.682;9.024;2022-08-21T14:51:29;3.13;;;2.93;;
4011;SDS011;2020;48.682;9.024;2022-08-21T14:53:55;4.13;;;3.90;;
4011;SDS011;2020;48.682;9.024;2022-08-21T14:56:20;3.47;;;3.37;;
4011;SDS011;2020;48.682;9.024;2022-08-21T14:58:47;4.27;;;3.10;;
4011;SDS011;2020;48.682;9.024;2022-08-21T15:01:14;4.13;;;3.77;;
4011;SDS011;2020;48.682;9.024;2022-08-21T15:03:42;3.73;;;3.50;;
4011;SDS011;2020;48.682;9.024;2022-08-21T15:06:08;5.27;;;3.50;;
4011;SDS011;2020;48.682;9.024;2022-08-21T15:08:33;6.63;;;3.30;;
4011;SDS011;2020;48.682;9.024;2022-08-21T15:10:59;8.80;;;2.90;;
4011;SDS011;2020;48.682;9.024;2022-08-21T15:13:26;3.10;;;2.87;;
4011;SDS011;2020;48.682;9.024;2022-08-21T15:15:52;3.17;;;3.07;;
4011;SDS011;2020;48.682;9.024;2022-08-21T15:18:18;3.13;;;3.00;;
4011;SDS011;2020;48.682;9.024;2022-08-21T15:20:44;3.40;;;3.30;;
4011;SDS011;2020;48.682;9.024;2022-08-21T15:23:09;4.07;;;2.77;;
4011;SDS011;2020;48.682;9.024;2022-08-21T15:25:35;3.40;;;3.20;;
4011;SDS011;2020;48.682;9.024;2022-08-21T15:28:01;3.80;;;3.50;;
4011;SDS011;2020;48.682;9.024;2022-08-21T15:30:28;6.27;;;3.27;;
4011;SDS011;2020;48.682;9.024;2022-08-21T15:32:55;3.20;;;3.03;;
4011;SDS011;2020;48.682;9.024;2022-08-21T15:35:20;3.70;;;3.50;;
4011;SDS011;2020;48.682;9.024;2022-08-21T15:37:46;6.30;;;4.70;;
4011;SDS011;2020;48.682;9.024;2022-08-21T15:40:11;3.43;;;3.13;;
4011;SDS011;2020;48.682;9.024;2022-08-21T15:42:39;3.17;;;3.00;;
4011;SDS011;2020;48.682;9.024;2022-08-21T15:45:06;3.23;;;3.03;;
4011;SDS011;2020;48.682;9.024;2022-08-21T15:47:34;3.50;;;3.27;;
4011;SDS011;2020;48.682;9.024;2022-08-21T15:50:02;3.30;;;3.10;;
4011;SDS011;2020;48.682;9.024;2022-08-21T15:52:29;3.43;;;3.23;;
4011;SDS011;2020;48.682;9.024;2022-08-21T15:54:54;3.30;;;3.10;;
4011;SDS011;2020;48.682;9.024;2022-08-21T15:57:20;2.70;;;2.60;;
4011;SDS011;2020;48.682;9.024;2022-08-21T15:59:48;4.93;;;4.23;;
4011;SDS011;2020;48.682;9.024;2022-08-21T16:02:17;3.70;;;3.37;;
4011;SDS011;2020;48.682;9.024;2022-08-21T16:04:46;3.97;;;3.57;;
4011;SDS011;2020;48.682;9.024;2022-08-21T16:07:12;4.27;;;3.90;;
4011;SDS011;2020;48.682;9.024;2022-08-21T16:09:37;3.90;;;3.60;;
4011;SDS011;2020;48.682;9.024;2022-08-21T16:12:04;3.37;;;3.17;;
4011;SDS011;2020;48.682;9.024;2022-08-21T16:14:30;3.20;;;3.10;;
4011;SDS011;2020;48.682;9.024;2022-08-21T16:16:58;3.73;;;3.43;;
4011;SDS011;2020;48.682;9.024;2022-08-21T16:19:23;4.50;;;3.70;;
4011;SDS011;2020;48.682;9.024;2022-08-21T16:21:50;3.80;;;3.20;;
4011;SDS011;2020;48.682;9.024;2022-08-21T16:24:15;3.60;;;3.40;;
4011;SDS011;2020;48.682;9.024;2022-08-21T16:26:40;4.20;;;3.30;;
4011;SDS011;2020;48.682;9.024;2022-08-21T16:29:06;3.83;;;3.60;;
4011;SDS011;2020;48.682;9.024;2022-08-21T16:31:32;3.50;;;3.23;;
4011;SDS011;2020;48.682;9.024;2022-08-21T16:33:58;3.20;;;3.00;;
4011;SDS011;2020;48.682;9.024;2022-08-21T16:36:24;3.27;;;2.70;;
4011;SDS011;2020;48.682;9.024;2022-08-21T16:38:50;3.60;;;3.40;;
4011;SDS011;2020;48.682;9.024;2022-08-21T16:41:18;2.80;;;2.70;;
4011;SDS011;2020;48.682;9.024;2022-08-21T16:43:45;3.70;;;3.30;;
4011;SDS011;2020;48.682;9.024;2022-08-21T16:46:13;3.67;;;3.37;;